Time;durP1;ratioP1;P1;durP2;ratioP2;P2;SDS_P1;SDS_P2;PMS_P1;PMS_P2;Temp;Humidity;BMP_temperature;BMP_pressure;BME280_temperature;BME280_humidity;BME280_pressure;Samples;Min_cycle;Max_cycle;Signal;HPM_P1;HPM_P2
2023/02/17 00:01:58;;;;;;;;;;;;;;;-3.40;86.19;94287.13;5007877;28;20004;-47
2023/02/17 00:04:24;;;;;;;;;;;;;;;-3.23;84.56;94283.78;5009963;28;20290;-47
2023/02/17 00:06:49;;;;;;;;;;;;;;;-3.46;84.78;94281.53;5009900;28;19999;-47
2023/02/17 00:09:14;;;;;;;;;;;;;;;-3.76;85.86;94279.47;5011488;28;19917;-48
2023/02/17 00:11:40;;;;;;;;;;;;;;;-3.75;87.30;94286.41;5011407;28;19918;-48
2023/02/17 00:14:05;;;;;;;;;;;;;;;-3.82;88.39;94275.84;5010933;28;19917;-47
2023/02/17 00:16:31;;;;;;;;;;;;;;;-3.67;87.46;94271.47;5011367;28;20031;-48
2023/02/17 00:18:59;;;;;;;;;;;;;;;-3.71;87.76;94270.84;5011250;28;19918;-48
2023/02/17 00:21:25;;;;;;;;;;;;;;;-3.58;87.53;94268.84;5011542;28;19917;-47
2023/02/17 00:23:51;;;;;;;;;;;;;;;-3.47;87.71;94274.63;5009692;28;19918;-48
2023/02/17 00:26:16;;;;;;;;;;;;;;;-3.43;87.78;94267.16;5014526;28;20340;-48
2023/02/17 00:28:42;;;;;;;;;;;;;;;-3.53;87.62;94273.66;5030611;28;20397;-47
2023/02/17 00:31:08;;;;;;;;;;;;;;;-3.56;86.64;94274.56;5030726;28;19920;-47
2023/02/17 00:33:33;;;;;;;;;;;;;;;-3.74;87.26;94279.03;5017904;28;20440;-48
2023/02/17 00:36:01;;;;;;;;;;;;;;;-3.65;86.59;94271.78;5016559;28;19917;-48
2023/02/17 00:38:27;;;;;;;;;;;;;;;-3.56;86.13;94266.47;5030352;28;20337;-48
2023/02/17 00:40:53;;;;;;;;;;;;;;;-3.58;86.12;94262.69;5030530;28;19917;-48
2023/02/17 00:43:18;;;;;;;;;;;;;;;-3.68;86.17;94253.75;5030494;28;19920;-47
2023/02/17 00:45:43;;;;;;;;;;;;;;;-3.68;86.06;94256.47;5030294;28;19940;-47
2023/02/17 00:48:09;;;;;;;;;;;;;;;-3.70;86.80;94255.41;5030195;28;19917;-48
2023/02/17 00:50:34;;;;;;;;;;;;;;;-3.82;86.88;94251.56;5030459;28;20581;-48
2023/02/17 00:53:00;;;;;;;;;;;;;;;-4.14;87.03;94228.38;5030094;28;19924;-48
2023/02/17 00:55:25;;;;;;;;;;;;;;;-3.94;86.79;94249.63;5030295;28;19917;-47
2023/02/17 00:57:50;;;;;;;;;;;;;;;-3.87;86.48;94250.16;5020103;28;20334;-47
2023/02/17 01:00:16;;;;;;;;;;;;;;;-3.86;87.08;94243.59;5009959;28;20012;-47
2023/02/17 01:02:41;;;;;;;;;;;;;;;-3.83;87.29;94242.72;5010903;28;20024;-48
2023/02/17 01:05:06;;;;;;;;;;;;;;;-3.81;86.61;94238.84;5009960;28;19918;-48
2023/02/17 01:07:32;;;;;;;;;;;;;;;-3.81;86.88;94239.56;5010155;28;19914;-47
2023/02/17 01:09:57;;;;;;;;;;;;;;;-4.02;87.61;94241.03;5010036;28;19917;-48
2023/02/17 01:12:22;;;;;;;;;;;;;;;-3.84;87.27;94232.38;5010222;28;19917;-47
2023/02/17 01:14:48;;;;;;;;;;;;;;;-3.86;87.41;94232.06;5009421;28;19925;-48
2023/02/17 01:17:13;;;;;;;;;;;;;;;-3.83;87.37;94225.03;5009785;28;19917;-48
2023/02/17 01:19:38;;;;;;;;;;;;;;;-3.87;86.71;94227.81;5009909;28;19928;-47
2023/02/17 01:22:03;;;;;;;;;;;;;;;-3.81;86.49;94222.66;5010194;28;20382;-48
2023/02/17 01:24:29;;;;;;;;;;;;;;;-4.01;86.64;94226.38;5009840;28;19917;-47
2023/02/17 01:26:54;;;;;;;;;;;;;;;-3.93;86.50;94221.50;5018725;28;19951;-47
2023/02/17 01:29:19;;;;;;;;;;;;;;;-4.01;87.24;94215.59;5029704;28;19917;-47
2023/02/17 01:31:44;;;;;;;;;;;;;;;-4.02;86.67;94214.09;5022007;28;19929;-47
2023/02/17 01:34:10;;;;;;;;;;;;;;;-3.96;86.40;94223.13;5013955;28;20638;-47
2023/02/17 01:36:35;;;;;;;;;;;;;;;-4.03;86.01;94220.66;5009490;28;20452;-47
2023/02/17 01:39:00;;;;;;;;;;;;;;;-4.17;87.06;94214.97;5009519;28;19941;-49
2023/02/17 01:41:27;;;;;;;;;;;;;;;-4.11;87.50;94221.31;5009295;28;19948;-47
2023/02/17 01:44:09;;;;;;;;;;;;;;;-4.00;87.20;94216.31;5009678;28;19944;-48
2023/02/17 01:46:35;;;;;;;;;;;;;;;-4.01;86.56;94220.22;5009531;28;19913;-47
2023/02/17 01:49:00;;;;;;;;;;;;;;;-4.13;87.34;94218.31;5009364;28;19960;-47
2023/02/17 01:51:27;;;;;;;;;;;;;;;-4.13;88.02;94216.38;5009433;28;19918;-47
2023/02/17 01:54:03;;;;;;;;;;;;;;;-4.18;88.93;94216.19;5009936;28;19917;-48
2023/02/17 01:56:28;;;;;;;;;;;;;;;-4.06;89.00;94207.28;5008248;28;19971;-48
2023/02/17 01:58:56;;;;;;;;;;;;;;;-4.00;88.58;94210.94;5015540;28;20368;-48
2023/02/17 02:01:22;;;;;;;;;;;;;;;-3.92;89.10;94207.56;5007765;28;20646;-48
2023/02/17 02:03:47;;;;;;;;;;;;;;;-3.90;88.38;94207.13;5008196;28;19956;-48
2023/02/17 02:06:13;;;;;;;;;;;;;;;-3.86;87.91;94200.44;5008000;28;20376;-48
2023/02/17 02:09:17;;;;;;;;;;;;;;;-3.86;87.02;94199.69;5008030;28;20380;-48
2023/02/17 02:11:43;;;;;;;;;;;;;;;-3.95;86.91;94197.66;4967269;28;19953;-48
2023/02/17 02:14:08;;;;;;;;;;;;;;;-4.13;87.72;94204.84;4967517;28;19914;-48
2023/02/17 02:16:52;;;;;;;;;;;;;;;-4.20;87.95;94195.03;4986332;28;20444;-48
2023/02/17 02:19:20;;;;;;;;;;;;;;;-4.25;87.75;94200.25;5008459;28;19921;-47
2023/02/17 02:21:57;;;;;;;;;;;;;;;-4.15;87.62;94207.22;5008806;28;19917;-48
2023/02/17 02:24:43;;;;;;;;;;;;;;;-4.30;87.82;94206.19;5008970;28;19979;-48
2023/02/17 02:27:18;;;;;;;;;;;;;;;-4.32;88.12;94195.06;5006646;28;19917;-47
2023/02/17 02:29:46;;;;;;;;;;;;;;;-4.39;88.93;94201.44;5007505;28;19925;-49
2023/02/17 02:32:30;;;;;;;;;;;;;;;-4.24;88.99;94201.72;5008390;28;19917;-47
2023/02/17 02:35:06;;;;;;;;;;;;;;;-4.30;88.57;94201.53;5008495;28;20016;-48
2023/02/17 02:37:35;;;;;;;;;;;;;;;-4.25;88.70;94202.94;5007409;28;19917;-48
2023/02/17 02:40:03;;;;;;;;;;;;;;;-4.39;89.26;94195.31;5007031;28;19952;-47
2023/02/17 02:42:28;;;;;;;;;;;;;;;-4.41;88.50;94187.66;5007488;28;19987;-48
2023/02/17 02:44:53;;;;;;;;;;;;;;;-4.23;88.31;94208.63;5008805;28;20378;-46
2023/02/17 02:47:37;;;;;;;;;;;;;;;-4.23;87.28;94198.63;5008763;28;19941;-47
2023/02/17 02:50:03;;;;;;;;;;;;;;;-4.29;87.54;94191.53;5008406;28;19921;-48
2023/02/17 02:52:40;;;;;;;;;;;;;;;-4.18;88.08;94186.53;5008371;28;20329;-48
2023/02/17 02:55:16;;;;;;;;;;;;;;;-4.17;89.05;94196.09;5008604;28;19921;-49
2023/02/17 02:57:47;;;;;;;;;;;;;;;-4.24;88.59;94190.94;5012280;28;19925;-49
2023/02/17 03:00:19;;;;;;;;;;;;;;;-4.31;87.87;94193.91;5008087;28;20007;-46
2023/02/17 03:02:45;;;;;;;;;;;;;;;-4.34;87.99;94205.53;5006866;28;19956;-49
2023/02/17 03:05:28;;;;;;;;;;;;;;;-4.47;88.43;94200.19;5008376;28;19963;-48
2023/02/17 03:07:55;;;;;;;;;;;;;;;-4.33;88.69;94197.00;5008363;28;19927;-49
2023/02/17 03:10:21;;;;;;;;;;;;;;;-4.26;89.64;94198.72;5007831;28;19924;-48
2023/02/17 03:12:46;;;;;;;;;;;;;;;-4.29;90.61;94197.66;5006959;28;19918;-48
2023/02/17 03:15:13;;;;;;;;;;;;;;;-4.31;90.78;94191.19;5008434;28;19975;-49
2023/02/17 03:17:38;;;;;;;;;;;;;;;-4.21;91.24;94193.53;5008215;28;20620;-49
2023/02/17 03:20:04;;;;;;;;;;;;;;;-4.08;90.72;94204.28;5007792;28;20015;-49
2023/02/17 03:22:34;;;;;;;;;;;;;;;-4.10;89.04;94203.97;5007761;28;19957;-50
2023/02/17 03:25:00;;;;;;;;;;;;;;;-4.31;90.36;94196.59;5006964;28;19918;-49
2023/02/17 03:27:25;;;;;;;;;;;;;;;-4.36;91.00;94208.69;5008250;28;19914;-49
2023/02/17 03:29:51;;;;;;;;;;;;;;;-4.17;91.06;94199.56;5007693;28;20376;-49
2023/02/17 03:32:16;;;;;;;;;;;;;;;-4.24;91.72;94199.03;5009082;28;20441;-49
2023/02/17 03:34:41;;;;;;;;;;;;;;;-4.01;92.44;94210.22;5006819;28;19926;-50
2023/02/17 03:37:06;;;;;;;;;;;;;;;-4.09;91.94;94216.25;5007698;28;20529;-49
2023/02/17 03:39:32;;;;;;;;;;;;;;;-4.28;92.06;94207.25;5010703;28;19929;-49
2023/02/17 03:41:57;;;;;;;;;;;;;;;-4.25;92.61;94211.03;5011892;28;20004;-49
2023/02/17 03:44:22;;;;;;;;;;;;;;;-4.29;92.16;94205.00;5011769;28;19921;-50
2023/02/17 03:46:47;;;;;;;;;;;;;;;-4.14;92.41;94206.78;5012098;28;19913;-49
2023/02/17 03:49:13;;;;;;;;;;;;;;;-4.13;92.62;94202.13;5011874;28;20364;-49
2023/02/17 03:51:38;;;;;;;;;;;;;;;-4.22;93.09;94208.19;5011830;28;19917;-50
2023/02/17 03:54:03;;;;;;;;;;;;;;;-4.19;93.06;94199.25;5011923;28;19913;-49
2023/02/17 03:56:29;;;;;;;;;;;;;;;-4.12;92.66;94196.31;5011793;28;19917;-47
2023/02/17 03:58:54;;;;;;;;;;;;;;;-4.13;91.01;94192.09;5019642;28;19928;-49
2023/02/17 04:01:19;;;;;;;;;;;;;;;-4.21;91.54;94198.94;5011226;28;20398;-50
2023/02/17 04:03:45;;;;;;;;;;;;;;;-4.25;91.93;94194.84;5009920;28;19924;-48
2023/02/17 04:06:10;;;;;;;;;;;;;;;-4.32;92.27;94198.53;5011392;28;19917;-49
2023/02/17 04:08:35;;;;;;;;;;;;;;;-4.06;91.70;94193.81;5011406;28;20035;-49
2023/02/17 04:11:02;;;;;;;;;;;;;;;-4.08;92.20;94198.88;5011161;28;20008;-50
2023/02/17 04:13:27;;;;;;;;;;;;;;;-4.12;92.40;94188.25;5011071;28;20397;-48
2023/02/17 04:15:53;;;;;;;;;;;;;;;-4.00;91.68;94189.38;5011324;28;19924;-50
2023/02/17 04:18:19;;;;;;;;;;;;;;;-4.06;90.98;94189.19;5010997;28;19917;-49
2023/02/17 04:20:46;;;;;;;;;;;;;;;-4.05;91.86;94187.25;5010813;28;19913;-50
2023/02/17 04:23:13;;;;;;;;;;;;;;;-4.05;92.00;94192.63;5011016;28;19913;-50
2023/02/17 04:25:38;;;;;;;;;;;;;;;-4.08;92.80;94186.16;5024206;28;19921;-50
2023/02/17 04:28:04;;;;;;;;;;;;;;;-4.04;93.47;94176.00;5012401;28;19923;-49
2023/02/17 04:30:30;;;;;;;;;;;;;;;-4.09;93.82;94191.97;5010798;28;19914;-50
2023/02/17 04:32:55;;;;;;;;;;;;;;;-4.17;93.28;94174.53;5021346;28;20007;-49
2023/02/17 04:35:20;;;;;;;;;;;;;;;-4.16;92.78;94189.53;5010708;28;19921;-50
2023/02/17 04:37:45;;;;;;;;;;;;;;;-4.26;92.84;94190.63;5010929;28;19917;-50
2023/02/17 04:40:11;;;;;;;;;;;;;;;-4.20;93.13;94186.22;5010727;28;19969;-48
2023/02/17 04:42:36;;;;;;;;;;;;;;;-4.20;92.72;94188.91;5010853;28;19917;-48
2023/02/17 04:45:02;;;;;;;;;;;;;;;-4.03;93.76;94182.16;5010725;28;20709;-48
2023/02/17 04:47:28;;;;;;;;;;;;;;;-4.03;93.12;94184.84;5010821;28;19921;-50
2023/02/17 04:49:53;;;;;;;;;;;;;;;-4.33;92.90;94196.28;5009518;28;20063;-49
2023/02/17 04:52:18;;;;;;;;;;;;;;;-4.29;94.69;94194.97;5011066;28;19913;-49
2023/02/17 04:54:43;;;;;;;;;;;;;;;-4.18;94.04;94195.34;5010953;28;20390;-49
2023/02/17 04:57:09;;;;;;;;;;;;;;;-4.25;94.11;94198.31;5014291;28;20301;-50
2023/02/17 04:59:34;;;;;;;;;;;;;;;-4.18;94.50;94195.34;5014968;28;19924;-50
2023/02/17 05:01:59;;;;;;;;;;;;;;;-4.14;95.05;94196.00;5010635;28;20008;-50
2023/02/17 05:04:25;;;;;;;;;;;;;;;-4.09;94.87;94206.22;5010759;28;20403;-49
2023/02/17 05:06:50;;;;;;;;;;;;;;;-4.03;94.99;94198.34;5010149;28;19947;-49
2023/02/17 05:09:15;;;;;;;;;;;;;;;-3.97;94.65;94210.06;5010787;28;19921;-49
2023/02/17 05:11:40;;;;;;;;;;;;;;;-4.04;94.63;94213.00;5010200;28;19917;-50
2023/02/17 05:14:06;;;;;;;;;;;;;;;-3.94;95.82;94198.41;5010137;28;20008;-50
2023/02/17 05:16:31;;;;;;;;;;;;;;;-3.74;96.77;94212.34;5010602;28;19917;-49
2023/02/17 05:18:56;;;;;;;;;;;;;;;-3.70;97.04;94210.28;5010171;28;19917;-49
2023/02/17 05:21:21;;;;;;;;;;;;;;;-3.54;97.26;94209.34;5018610;28;20440;-49
2023/02/17 05:23:47;;;;;;;;;;;;;;;-3.51;97.15;94224.66;5030114;28;20012;-49
2023/02/17 05:26:12;;;;;;;;;;;;;;;-3.58;96.74;94214.88;5026378;28;20317;-50
2023/02/17 05:28:37;;;;;;;;;;;;;;;-3.57;95.80;94227.16;5010252;28;19917;-49
2023/02/17 05:31:03;;;;;;;;;;;;;;;-3.52;94.55;94234.69;5012400;28;19921;-50
2023/02/17 05:33:29;;;;;;;;;;;;;;;-3.50;94.72;94248.50;5017544;28;20004;-49
2023/02/17 05:35:54;;;;;;;;;;;;;;;-3.54;94.02;94236.34;5009749;28;20024;-50
2023/02/17 05:38:19;;;;;;;;;;;;;;;-3.52;94.50;94233.94;5009959;28;19913;-48
2023/02/17 05:40:44;;;;;;;;;;;;;;;-3.41;94.55;94245.88;5009793;28;19918;-50
2023/02/17 05:43:10;;;;;;;;;;;;;;;-3.30;94.18;94248.19;5009788;28;19917;-49
2023/02/17 05:45:35;;;;;;;;;;;;;;;-3.16;93.54;94237.63;5009785;28;19995;-49
2023/02/17 05:48:00;;;;;;;;;;;;;;;-3.05;93.88;94250.00;5009597;28;19917;-48
2023/02/17 05:50:26;;;;;;;;;;;;;;;-3.08;92.93;94251.63;5009579;28;19913;-48
2023/02/17 05:52:51;;;;;;;;;;;;;;;-3.08;92.70;94251.63;5009819;28;20004;-50
2023/02/17 05:55:16;;;;;;;;;;;;;;;-3.20;93.21;94263.25;5009135;28;19917;-49
2023/02/17 05:57:41;;;;;;;;;;;;;;;-3.05;93.21;94258.13;5017644;28;19917;-48
2023/02/17 06:00:07;;;;;;;;;;;;;;;-3.00;93.40;94257.53;5009233;28;20072;-50
2023/02/17 06:02:32;;;;;;;;;;;;;;;-2.95;94.19;94263.13;5008872;28;19983;-51
2023/02/17 06:04:57;;;;;;;;;;;;;;;-3.04;93.13;94268.47;5009739;28;20440;-48
2023/02/17 06:07:23;;;;;;;;;;;;;;;-2.85;93.20;94258.50;5009381;28;20011;-51
2023/02/17 06:09:48;;;;;;;;;;;;;;;-2.69;92.78;94264.47;5008971;28;19923;-50
2023/02/17 06:12:13;;;;;;;;;;;;;;;-2.63;92.08;94270.78;5009180;28;20376;-50
2023/02/17 06:14:39;;;;;;;;;;;;;;;-2.69;91.95;94271.81;5008944;28;19914;-48
2023/02/17 06:17:04;;;;;;;;;;;;;;;-2.84;92.42;94276.22;5013251;28;20027;-49
2023/02/17 06:19:29;;;;;;;;;;;;;;;-2.71;92.92;94272.25;5029270;28;20377;-48
2023/02/17 06:21:55;;;;;;;;;;;;;;;-2.56;92.38;94275.16;5028554;28;19921;-48
2023/02/17 06:24:21;;;;;;;;;;;;;;;-2.45;91.95;94280.91;5028885;28;20560;-49
2023/02/17 06:26:46;;;;;;;;;;;;;;;-2.25;92.15;94283.97;5021188;28;19924;-49
2023/02/17 06:29:11;;;;;;;;;;;;;;;-2.26;91.87;94282.50;5008937;28;20416;-48
2023/02/17 06:31:37;;;;;;;;;;;;;;;-2.14;91.44;94278.91;5016488;28;19975;-49
2023/02/17 06:34:02;;;;;;;;;;;;;;;-1.91;88.64;94283.78;5012049;28;19928;-49
2023/02/17 06:36:27;;;;;;;;;;;;;;;-1.85;87.55;94284.69;5008551;28;19979;-49
2023/02/17 06:38:52;;;;;;;;;;;;;;;-1.56;87.17;94292.41;5009016;28;19925;-50
2023/02/17 06:41:18;;;;;;;;;;;;;;;-1.34;86.09;94284.88;5008689;28;19937;-49
2023/02/17 06:43:43;;;;;;;;;;;;;;;-1.25;85.07;94289.53;5008301;28;19960;-50
2023/02/17 06:46:08;;;;;;;;;;;;;;;-0.74;84.90;94293.09;5008753;28;19921;-49
2023/02/17 06:48:34;;;;;;;;;;;;;;;-0.54;83.97;94292.59;5008662;28;19917;-49
2023/02/17 06:50:59;;;;;;;;;;;;;;;-0.19;83.69;94296.38;5008706;28;19917;-49
2023/02/17 06:53:24;;;;;;;;;;;;;;;0.21;82.71;94296.03;5008547;28;20260;-49
2023/02/17 06:55:50;;;;;;;;;;;;;;;0.77;79.87;94295.94;5008234;28;19972;-49
2023/02/17 06:58:15;;;;;;;;;;;;;;;1.34;78.77;94302.69;5014903;28;19913;-49
2023/02/17 07:00:40;;;;;;;;;;;;;;;2.80;75.02;94294.19;5008084;28;19917;-50
2023/02/17 07:03:05;;;;;;;;;;;;;;;3.16;71.32;94303.03;5008189;28;19913;-48
2023/02/17 07:05:33;;;;;;;;;;;;;;;3.49;70.68;94303.34;5008511;28;19917;-49
2023/02/17 07:07:58;;;;;;;;;;;;;;;4.41;68.09;94298.34;5008038;28;20040;-50
2023/02/17 07:10:23;;;;;;;;;;;;;;;5.05;66.18;94297.66;5007841;28;20015;-50
2023/02/17 07:12:49;;;;;;;;;;;;;;;5.15;64.59;94298.94;5007571;28;19924;-49
2023/02/17 07:15:14;;;;;;;;;;;;;;;7.30;60.29;94297.28;5018113;28;19914;-49
2023/02/17 07:17:40;;;;;;;;;;;;;;;7.84;57.53;94297.50;5007739;28;19996;-50
2023/02/17 07:20:08;;;;;;;;;;;;;;;10.34;49.77;94298.88;5008246;28;19925;-50
2023/02/17 07:22:33;;;;;;;;;;;;;;;10.90;48.63;94301.44;5007762;28;20514;-49
2023/02/17 07:24:58;;;;;;;;;;;;;;;13.08;44.41;94297.53;5007956;28;19917;-49
2023/02/17 07:27:23;;;;;;;;;;;;;;;12.78;43.13;94295.28;5007967;28;19939;-49
2023/02/17 07:29:49;;;;;;;;;;;;;;;13.82;41.82;94306.09;5007808;28;19975;-49
2023/02/17 07:32:14;;;;;;;;;;;;;;;15.01;37.10;94307.59;5018505;28;19917;-50
2023/02/17 07:34:39;;;;;;;;;;;;;;;14.17;37.62;94305.25;5007829;28;19932;-49
2023/02/17 07:37:04;;;;;;;;;;;;;;;13.62;39.15;94302.13;5007541;28;20577;-50
2023/02/17 07:39:30;;;;;;;;;;;;;;;15.90;36.90;94304.44;5007777;28;19937;-50
2023/02/17 07:41:59;;;;;;;;;;;;;;;17.74;33.01;94295.63;5008216;28;20330;-50
2023/02/17 07:44:25;;;;;;;;;;;;;;;16.54;32.10;94301.72;5007701;28;20308;-49
2023/02/17 07:46:50;;;;;;;;;;;;;;;15.65;33.08;94300.81;5007447;28;19918;-49
2023/02/17 07:49:16;;;;;;;;;;;;;;;15.86;32.38;94302.03;5008012;28;19913;-49
2023/02/17 07:51:41;;;;;;;;;;;;;;;15.64;32.42;94297.28;5007737;28;19917;-49
2023/02/17 07:54:07;;;;;;;;;;;;;;;16.53;31.19;94294.66;5007448;28;20594;-49
2023/02/17 07:56:32;;;;;;;;;;;;;;;15.85;32.30;94300.53;5007966;28;19924;-50
2023/02/17 07:58:58;;;;;;;;;;;;;;;16.91;29.89;94297.19;5015485;28;19917;-49
2023/02/17 08:01:23;;;;;;;;;;;;;;;17.04;30.03;94298.94;5007526;28;20407;-49
2023/02/17 08:03:49;;;;;;;;;;;;;;;18.00;29.63;94301.28;5007814;28;19924;-50
2023/02/17 08:06:16;;;;;;;;;;;;;;;18.01;27.89;94302.78;5007545;28;19918;-49
2023/02/17 08:14:09;;;;;;;;;;;;;;;18.64;27.32;94304.94;5026423;28;20018;-50
2023/02/17 08:16:34;;;;;;;;;;;;;;;18.52;27.98;94304.00;5007651;28;20569;-50
2023/02/17 08:18:59;;;;;;;;;;;;;;;17.85;27.70;94309.09;5007186;28;19921;-50
2023/02/17 08:21:25;;;;;;;;;;;;;;;17.79;28.08;94308.63;5007873;28;20007;-49
2023/02/17 08:23:51;;;;;;;;;;;;;;;18.80;27.07;94315.31;5008029;28;19924;-48
2023/02/17 08:26:16;;;;;;;;;;;;;;;20.23;26.11;94308.53;5011087;28;19921;-49
2023/02/17 08:28:42;;;;;;;;;;;;;;;21.18;23.60;94318.06;5009648;28;20312;-49
2023/02/17 08:31:14;;;;;;;;;;;;;;;19.78;25.00;94318.56;5014180;28;19975;-49
2023/02/17 08:33:39;;;;;;;;;;;;;;;20.26;24.37;94312.97;5016816;28;20405;-49
2023/02/17 08:36:05;;;;;;;;;;;;;;;21.55;25.29;94313.56;5011016;28;19917;-49
2023/02/17 08:38:30;;;;;;;;;;;;;;;22.30;22.61;94310.81;5010576;28;19932;-49
2023/02/17 08:40:56;;;;;;;;;;;;;;;21.73;23.92;94311.97;5010889;28;19914;-50
2023/02/17 08:43:21;;;;;;;;;;;;;;;21.47;23.30;94315.81;5011090;28;20425;-48
2023/02/17 08:45:46;;;;;;;;;;;;;;;22.06;22.57;94309.97;5010561;28;19913;-50
2023/02/17 08:48:12;;;;;;;;;;;;;;;22.29;23.13;94309.31;5010465;28;19917;-49
2023/02/17 08:50:37;;;;;;;;;;;;;;;22.87;21.53;94309.53;5010544;28;20000;-48
2023/02/17 08:53:02;;;;;;;;;;;;;;;21.93;22.51;94310.53;5010528;28;20024;-50
2023/02/17 08:55:27;;;;;;;;;;;;;;;21.96;22.92;94317.72;5010773;28;19917;-51
2023/02/17 08:57:53;;;;;;;;;;;;;;;21.55;23.44;94311.47;5018540;28;19917;-49
2023/02/17 09:00:18;;;;;;;;;;;;;;;22.72;23.44;94321.25;5010021;28;20026;-49
2023/02/17 09:02:44;;;;;;;;;;;;;;;22.57;23.40;94317.50;5010617;28;19972;-49
2023/02/17 09:05:10;;;;;;;;;;;;;;;22.89;22.03;94304.72;5010249;28;20366;-49
2023/02/17 09:07:36;;;;;;;;;;;;;;;22.62;22.18;94304.44;5028710;28;19921;-48
2023/02/17 09:10:01;;;;;;;;;;;;;;;22.32;22.70;94306.03;5030163;28;20388;-48
2023/02/17 09:12:27;;;;;;;;;;;;;;;22.21;22.43;94306.00;5030097;28;20420;-49
2023/02/17 09:14:52;;;;;;;;;;;;;;;22.14;23.15;94293.63;5022939;28;19940;-48
2023/02/17 09:17:17;;;;;;;;;;;;;;;21.52;23.44;94303.53;5010412;28;19940;-49
2023/02/17 09:19:42;;;;;;;;;;;;;;;22.06;22.97;94306.41;5009824;28;20041;-48
2023/02/17 09:22:08;;;;;;;;;;;;;;;23.14;21.80;94304.16;5008660;28;19918;-49
2023/02/17 09:24:37;;;;;;;;;;;;;;;22.49;22.70;94308.53;5009888;28;19918;-48
2023/02/17 09:27:02;;;;;;;;;;;;;;;23.07;21.61;94316.38;5009684;28;20302;-50
2023/02/17 09:29:27;;;;;;;;;;;;;;;22.69;22.42;94311.19;5009696;28;20012;-49
2023/02/17 09:31:53;;;;;;;;;;;;;;;23.34;21.89;94314.59;5009667;28;19921;-49
2023/02/17 09:34:18;;;;;;;;;;;;;;;23.02;21.30;94311.88;5026156;28;19975;-49
2023/02/17 09:36:43;;;;;;;;;;;;;;;22.93;22.06;94305.00;5029159;28;19924;-50
2023/02/17 09:39:09;;;;;;;;;;;;;;;23.90;21.24;94308.00;5029240;28;19925;-49
2023/02/17 09:41:37;;;;;;;;;;;;;;;22.83;22.48;94303.63;5029386;28;20337;-49
2023/02/17 09:44:04;;;;;;;;;;;;;;;22.82;21.81;94310.59;5029225;28;19913;-49
2023/02/17 09:46:37;;;;;;;;;;;;;;;22.22;22.95;94313.09;5029450;28;19917;-48
2023/02/17 09:49:05;;;;;;;;;;;;;;;24.09;21.69;94302.84;5027905;28;19917;-50
2023/02/17 09:51:30;;;;;;;;;;;;;;;23.43;21.29;94303.81;5027909;28;20451;-50
2023/02/17 09:54:02;;;;;;;;;;;;;;;23.41;21.36;94295.97;5028803;28;20009;-50
2023/02/17 09:56:29;;;;;;;;;;;;;;;23.05;21.31;94308.56;5027908;28;19917;-52
2023/02/17 09:58:56;;;;;;;;;;;;;;;22.84;21.41;94296.66;5017605;28;19971;-48
2023/02/17 10:01:23;;;;;;;;;;;;;;;22.38;23.49;94295.19;5009735;28;19983;-49
2023/02/17 10:03:49;;;;;;;;;;;;;;;22.74;21.86;94287.59;5008545;28;19925;-50
2023/02/17 10:06:14;;;;;;;;;;;;;;;22.24;21.41;94294.25;5009752;28;19918;-49
2023/02/17 10:08:42;;;;;;;;;;;;;;;23.01;21.35;94287.84;5009457;28;19982;-51
2023/02/17 10:11:28;;;;;;;;;;;;;;;23.23;21.04;94287.13;5009829;28;19917;-48
2023/02/17 10:13:53;;;;;;;;;;;;;;;23.01;21.88;94280.13;4998841;28;19975;-49
2023/02/17 10:16:20;;;;;;;;;;;;;;;23.07;22.93;94279.75;5027917;28;19914;-49
2023/02/17 10:18:47;;;;;;;;;;;;;;;23.14;21.25;94267.53;5028971;28;19921;-52
2023/02/17 10:21:18;;;;;;;;;;;;;;;22.47;21.57;94271.84;5027755;28;19924;-52
2023/02/17 10:23:44;;;;;;;;;;;;;;;23.95;21.44;94273.06;5029133;28;20401;-49
2023/02/17 10:26:33;;;;;;;;;;;;;;;23.92;21.20;94269.38;5025228;28;19917;-50
2023/02/17 10:29:18;;;;;;;;;;;;;;;23.80;21.27;94265.84;4980473;28;19917;-49
2023/02/17 10:32:07;;;;;;;;;;;;;;;23.76;20.80;94264.88;5016952;28;19917;-49
2023/02/17 10:34:44;;;;;;;;;;;;;;;22.72;22.23;94264.94;5000511;28;19969;-49
2023/02/17 10:37:13;;;;;;;;;;;;;;;22.77;22.63;94250.50;5009210;28;19913;-49
2023/02/17 10:39:57;;;;;;;;;;;;;;;22.70;23.59;94254.28;5009254;28;19925;-50
2023/02/17 10:42:29;;;;;;;;;;;;;;;22.64;22.65;94248.28;5008899;28;20386;-51
2023/02/17 10:44:58;;;;;;;;;;;;;;;22.07;23.25;94252.38;5007546;28;20008;-50
2023/02/17 10:47:24;;;;;;;;;;;;;;;21.82;22.99;94240.88;5007090;28;19928;-49
2023/02/17 10:49:49;;;;;;;;;;;;;;;22.67;23.92;94244.25;5007166;28;19917;-49
2023/02/17 10:52:15;;;;;;;;;;;;;;;22.66;23.24;94230.75;5009039;28;20365;-50
2023/02/17 10:54:51;;;;;;;;;;;;;;;22.90;21.76;94227.34;5008567;28;19917;-49
2023/02/17 10:57:17;;;;;;;;;;;;;;;22.54;22.63;94225.09;5007491;28;20293;-50
2023/02/17 10:59:43;;;;;;;;;;;;;;;21.84;22.35;94224.91;5008383;28;19945;-50
2023/02/17 11:02:19;;;;;;;;;;;;;;;22.32;22.17;94216.00;5008083;28;20385;-50
2023/02/17 11:04:46;;;;;;;;;;;;;;;22.67;21.97;94218.91;5007021;28;19918;-50
2023/02/17 11:07:12;;;;;;;;;;;;;;;23.05;21.77;94209.22;5008257;28;20012;-50
2023/02/17 11:09:38;;;;;;;;;;;;;;;23.09;23.01;94212.28;5008011;28;19922;-50
2023/02/17 11:12:14;;;;;;;;;;;;;;;23.63;20.58;94203.53;5008132;28;20369;-49
2023/02/17 11:14:49;;;;;;;;;;;;;;;22.63;21.82;94213.75;5008430;28;19914;-49
2023/02/17 11:17:20;;;;;;;;;;;;;;;23.15;20.79;94202.09;5007860;28;20378;-50
2023/02/17 11:19:54;;;;;;;;;;;;;;;22.15;21.31;94199.47;5006510;28;19918;-49
2023/02/17 11:22:29;;;;;;;;;;;;;;;22.22;22.52;94192.16;5008478;28;19917;-49
2023/02/17 11:24:58;;;;;;;;;;;;;;;21.67;21.21;94188.63;5007810;28;19924;-49
2023/02/17 11:27:25;;;;;;;;;;;;;;;21.78;22.01;94190.03;5020644;28;19927;-50
2023/02/17 11:29:50;;;;;;;;;;;;;;;21.07;22.42;94181.84;5028005;28;19917;-50
2023/02/17 11:32:15;;;;;;;;;;;;;;;21.60;20.95;94178.34;5025130;28;19932;-49
2023/02/17 11:34:41;;;;;;;;;;;;;;;20.09;22.45;94176.47;5007694;28;19925;-49
2023/02/17 11:37:13;;;;;;;;;;;;;;;20.79;23.09;94175.03;5007091;28;19917;-49
2023/02/17 11:39:38;;;;;;;;;;;;;;;20.84;22.46;94173.22;5007756;28;19928;-50
2023/02/17 11:42:13;;;;;;;;;;;;;;;20.88;23.22;94174.22;5007821;28;19922;-49
2023/02/17 11:44:38;;;;;;;;;;;;;;;21.06;23.08;94175.50;5007923;28;19917;-48
2023/02/17 11:47:16;;;;;;;;;;;;;;;21.43;22.49;94164.59;5007695;28;19918;-48
2023/02/17 11:49:43;;;;;;;;;;;;;;;21.56;23.72;94166.09;5006360;28;19925;-50
2023/02/17 11:52:08;;;;;;;;;;;;;;;20.99;24.04;94167.97;5006777;28;20008;-50
2023/02/17 11:54:33;;;;;;;;;;;;;;;21.75;20.97;94166.66;5011513;28;20052;-49
2023/02/17 11:56:58;;;;;;;;;;;;;;;21.37;22.32;94155.75;5024873;28;19917;-49
2023/02/17 11:59:33;;;;;;;;;;;;;;;21.60;20.92;94161.47;5008743;28;20462;-49
2023/02/17 12:01:58;;;;;;;;;;;;;;;20.80;22.24;94145.63;5011282;28;19925;-49
2023/02/17 12:04:23;;;;;;;;;;;;;;;20.10;22.97;94147.09;5011777;28;19917;-48
2023/02/17 12:06:57;;;;;;;;;;;;;;;20.25;22.83;94151.63;5011673;28;19918;-50
2023/02/17 12:09:26;;;;;;;;;;;;;;;20.18;22.21;94144.84;5011503;28;19963;-48
2023/02/17 12:11:58;;;;;;;;;;;;;;;20.14;22.69;94141.06;5010352;28;19953;-49
2023/02/17 12:14:26;;;;;;;;;;;;;;;19.59;23.32;94142.06;5013511;28;20467;-49
2023/02/17 12:16:56;;;;;;;;;;;;;;;18.89;24.50;94124.34;5030829;28;19917;-49
2023/02/17 12:19:25;;;;;;;;;;;;;;;19.31;24.53;94137.94;5029820;28;19979;-48
2023/02/17 12:21:59;;;;;;;;;;;;;;;19.90;22.79;94130.94;5030439;28;19944;-50
2023/02/17 12:24:33;;;;;;;;;;;;;;;19.21;24.38;94139.25;5031169;28;19917;-48
2023/02/17 12:27:07;;;;;;;;;;;;;;;19.33;23.68;94129.69;5021516;28;19975;-48
2023/02/17 12:29:42;;;;;;;;;;;;;;;18.75;25.23;94126.09;5009550;28;19917;-48
2023/02/17 12:32:13;;;;;;;;;;;;;;;18.57;24.68;94137.97;5021769;28;19913;-49
2023/02/17 12:34:58;;;;;;;;;;;;;;;18.26;25.07;94132.13;5010459;28;19979;-48
2023/02/17 12:37:28;;;;;;;;;;;;;;;18.33;24.22;94116.53;5011106;28;20008;-50
2023/02/17 12:39:54;;;;;;;;;;;;;;;18.13;25.74;94122.06;5009603;28;19951;-48
2023/02/17 12:42:22;;;;;;;;;;;;;;;17.78;25.72;94122.81;5010468;28;20418;-49
2023/02/17 12:45:05;;;;;;;;;;;;;;;18.11;24.94;94121.91;5009604;28;20408;-48
2023/02/17 12:47:38;;;;;;;;;;;;;;;17.99;24.61;94111.88;5010339;28;19917;-49
2023/02/17 12:50:15;;;;;;;;;;;;;;;17.90;25.86;94120.94;5009704;28;19920;-49
2023/02/17 12:52:42;;;;;;;;;;;;;;;18.09;24.96;94113.38;5030055;28;19921;-49
2023/02/17 12:55:07;;;;;;;;;;;;;;;17.61;25.64;94112.41;5028699;28;20589;-49